createdAt,value
2018-10-17T00:00:18.073Z,7.90
2018-10-17T00:05:01.068Z,8.73
2018-10-17T00:09:43.885Z,8.17
2018-10-17T00:14:27.925Z,9.47
2018-10-17T00:19:10.804Z,8.97
2018-10-17T00:23:54.844Z,9.80
2018-10-17T00:28:37.697Z,8.67
2018-10-17T00:33:20.552Z,8.97
2018-10-17T00:38:03.432Z,9.00
2018-10-17T00:42:46.337Z,8.87
2018-10-17T00:47:29.404Z,9.23
2018-10-17T00:52:12.314Z,9.07
2018-10-17T00:56:57.284Z,9.27
2018-10-17T01:01:40.264Z,9.80
2018-10-17T01:06:24.349Z,10.10
2018-10-17T01:11:07.607Z,9.13
2018-10-17T01:15:51.654Z,9.50
2018-10-17T01:20:34.563Z,9.60
2018-10-17T01:25:18.477Z,10.70
2018-10-17T01:30:01.328Z,10.43
2018-10-17T01:34:44.200Z,10.60
2018-10-17T01:39:27.058Z,11.00
2018-10-17T01:44:09.958Z,9.67
2018-10-17T01:48:52.850Z,9.23
2018-10-17T01:53:36.013Z,11.03
2018-10-17T01:58:18.913Z,10.53
2018-10-17T02:03:03.868Z,10.67
2018-10-17T02:07:46.742Z,10.00
2018-10-17T02:12:30.601Z,10.97
2018-10-17T02:17:13.539Z,9.73
2018-10-17T02:21:56.357Z,10.90
2018-10-17T02:26:40.276Z,10.30
2018-10-17T02:31:23.189Z,11.00
2018-10-17T02:36:09.673Z,10.63
2018-10-17T02:40:52.558Z,10.50
2018-10-17T02:45:37.446Z,10.20
2018-10-17T02:50:20.284Z,9.73
2018-10-17T02:55:03.324Z,11.50
2018-10-17T02:59:46.106Z,10.77
2018-10-17T03:04:29.248Z,10.83
2018-10-17T03:09:12.125Z,10.90
2018-10-17T03:13:55.023Z,11.07
2018-10-17T03:18:37.953Z,11.67
2018-10-17T03:23:21.107Z,10.57
2018-10-17T03:28:04.039Z,9.80
2018-10-17T03:32:50.635Z,10.70
2018-10-17T03:37:33.670Z,11.53
2018-10-17T03:42:17.634Z,11.33
2018-10-17T03:47:00.604Z,11.50
2018-10-17T03:51:43.463Z,11.60
2018-10-17T03:56:28.598Z,13.03
2018-10-17T04:01:11.493Z,11.87
2018-10-17T04:05:55.415Z,12.13
2018-10-17T04:10:38.682Z,12.00
2018-10-17T04:15:22.769Z,12.03
2018-10-17T04:20:05.833Z,12.83
2018-10-17T04:24:48.753Z,11.63
2018-10-17T04:29:43.753Z,11.90
2018-10-17T04:34:26.829Z,12.27
2018-10-17T04:39:11.123Z,11.93
2018-10-17T04:43:54.142Z,12.30
2018-10-17T04:48:37.130Z,11.83
2018-10-17T04:53:20.099Z,12.93
2018-10-17T04:58:03.497Z,11.43
2018-10-17T05:02:48.146Z,11.43
2018-10-17T05:07:31.036Z,11.43
2018-10-17T05:12:15.029Z,11.30
2018-10-17T05:16:58.123Z,10.57
2018-10-17T05:21:41.214Z,11.30
2018-10-17T05:26:24.083Z,11.77
2018-10-17T05:31:07.017Z,10.47
2018-10-17T05:35:50.908Z,12.53
2018-10-17T05:40:33.777Z,11.80
2018-10-17T05:45:16.709Z,10.33
2018-10-17T05:49:59.592Z,8.90
2018-10-17T05:54:42.698Z,10.17
2018-10-17T05:59:25.624Z,10.83
2018-10-17T06:04:09.184Z,10.33
2018-10-17T06:08:52.054Z,11.60
2018-10-17T06:13:35.005Z,9.47
2018-10-17T06:18:18.933Z,8.70
2018-10-17T06:23:01.845Z,8.80
2018-10-17T06:27:44.727Z,8.63
2018-10-17T06:32:27.907Z,9.00
2018-10-17T06:37:10.869Z,9.60
2018-10-17T06:41:53.825Z,9.63
2018-10-17T06:46:36.778Z,10.17
2018-10-17T06:51:19.700Z,10.23
2018-10-17T06:56:02.515Z,9.10
2018-10-17T07:00:45.396Z,10.00
2018-10-17T07:05:29.290Z,11.10
2018-10-17T07:10:12.156Z,11.47
2018-10-17T07:14:55.073Z,12.23
2018-10-17T07:19:37.988Z,12.40
2018-10-17T07:24:21.118Z,11.37
2018-10-17T07:29:04.049Z,59.37
2018-10-17T07:33:47.078Z,21.27
2018-10-17T07:38:29.920Z,23.53
2018-10-17T07:43:16.702Z,14.13
2018-10-17T07:47:59.595Z,17.07
2018-10-17T07:52:42.477Z,11.70
2018-10-17T07:57:25.335Z,10.60
2018-10-17T08:02:09.240Z,11.03
2018-10-17T08:06:52.103Z,9.50
2018-10-17T08:11:36.468Z,9.53
2018-10-17T08:16:19.335Z,9.27
2018-10-17T08:21:02.186Z,9.30
2018-10-17T08:25:47.232Z,9.83
2018-10-17T08:30:30.139Z,9.40
2018-10-17T08:35:14.112Z,10.90
2018-10-17T08:39:56.921Z,10.90
2018-10-17T08:44:40.820Z,10.20
2018-10-17T08:49:23.726Z,9.13
2018-10-17T08:54:06.626Z,9.97
2018-10-17T08:58:49.606Z,10.03
2018-10-17T09:03:32.645Z,10.33
2018-10-17T09:08:15.595Z,11.47
2018-10-17T09:12:59.540Z,10.87
2018-10-17T09:17:42.416Z,11.57
2018-10-17T09:22:25.741Z,10.23
2018-10-17T09:27:08.611Z,11.27
2018-10-17T09:31:51.730Z,10.63
2018-10-17T09:36:34.644Z,11.47
2018-10-17T09:41:17.739Z,10.00
2018-10-17T09:46:00.660Z,11.40
2018-10-17T09:50:43.530Z,13.57
2018-10-17T09:55:26.667Z,12.40
2018-10-17T10:01:12.387Z,13.83
2018-10-17T10:05:55.432Z,12.57
2018-10-17T10:10:38.310Z,13.80
2018-10-17T10:15:22.514Z,15.77
2018-10-17T10:20:05.603Z,14.83
2018-10-17T10:24:50.655Z,16.70
2018-10-17T10:29:33.490Z,17.93
2018-10-17T10:34:16.635Z,17.43
2018-10-17T10:39:01.370Z,15.67
2018-10-17T10:43:46.410Z,14.10
2018-10-17T10:48:29.537Z,14.37
2018-10-17T10:53:12.435Z,14.93
2018-10-17T10:57:56.243Z,14.63
2018-10-17T11:02:39.216Z,17.17
2018-10-17T11:07:22.114Z,16.77
2018-10-17T11:12:06.467Z,19.13
2018-10-17T11:16:49.348Z,15.73
2018-10-17T11:21:33.303Z,15.03
2018-10-17T11:27:45.635Z,18.73
2018-10-17T11:32:28.665Z,18.20
2018-10-17T11:37:11.561Z,20.67
2018-10-17T11:41:56.502Z,18.87
2018-10-17T11:46:39.383Z,19.77
2018-10-17T11:51:25.546Z,16.30
2018-10-17T11:56:08.573Z,19.13
2018-10-17T12:00:51.787Z,17.63
2018-10-17T12:05:35.050Z,16.80
2018-10-17T12:10:17.910Z,16.37
2018-10-17T12:15:08.692Z,15.67
2018-10-17T12:19:52.555Z,17.00
2018-10-17T12:24:38.650Z,14.60
2018-10-17T12:29:21.758Z,16.23
2018-10-17T12:34:06.253Z,13.97
2018-10-17T12:38:49.670Z,16.43
2018-10-17T12:43:32.833Z,15.17
2018-10-17T12:48:16.146Z,17.60
2018-10-17T12:52:59.454Z,16.63
2018-10-17T12:57:44.004Z,16.50
2018-10-17T13:02:27.155Z,15.33
2018-10-17T13:07:10.399Z,13.13
2018-10-17T13:11:59.304Z,13.77
2018-10-17T13:16:44.703Z,11.83
2018-10-17T13:21:28.894Z,10.77
2018-10-17T13:26:11.993Z,12.20
2018-10-17T13:30:56.418Z,12.27
2018-10-17T13:35:39.442Z,11.50
2018-10-17T13:40:23.008Z,11.60
2018-10-17T13:45:06.614Z,9.30
2018-10-17T13:49:49.630Z,11.93
2018-10-17T13:54:32.756Z,11.00
2018-10-17T13:59:15.780Z,14.40
2018-10-17T14:04:03.111Z,16.73
2018-10-17T14:08:46.111Z,17.63
2018-10-17T14:13:30.529Z,15.67
2018-10-17T14:18:13.530Z,16.53
2018-10-17T14:22:57.652Z,13.90
2018-10-17T14:27:40.745Z,14.10
2018-10-17T14:32:25.945Z,15.30
2018-10-17T14:37:08.970Z,16.23
2018-10-17T14:41:54.127Z,14.67
2018-10-17T14:46:37.094Z,16.60
2018-10-17T14:51:22.080Z,17.73
2018-10-17T14:56:06.081Z,19.13
2018-10-17T15:00:50.174Z,19.07
2018-10-17T15:05:33.204Z,26.57
2018-10-17T15:10:17.334Z,22.47
2018-10-17T15:15:00.417Z,20.77
2018-10-17T15:19:43.372Z,19.90
2018-10-17T15:24:26.277Z,21.33
2018-10-17T15:29:09.210Z,17.20
2018-10-17T15:33:52.384Z,15.60
2018-10-17T15:38:35.338Z,17.90
2018-10-17T15:43:21.752Z,15.90
2018-10-17T15:48:05.070Z,17.07
2018-10-17T15:52:49.067Z,18.07
2018-10-17T15:57:31.984Z,17.70
2018-10-17T16:02:16.034Z,23.90
2018-10-17T16:06:58.997Z,20.03
2018-10-17T16:11:46.229Z,19.70
2018-10-17T16:16:29.548Z,20.23
2018-10-17T16:21:14.339Z,19.40
2018-10-17T16:25:58.534Z,20.17
2018-10-17T16:30:45.865Z,22.70
2018-10-17T16:35:28.697Z,23.27
2018-10-17T16:40:12.643Z,21.43
2018-10-17T16:44:55.535Z,23.40
2018-10-17T16:49:38.477Z,21.97
2018-10-17T16:54:22.592Z,20.30
2018-10-17T16:59:05.523Z,17.23
2018-10-17T17:03:48.547Z,17.70
2018-10-17T17:08:31.431Z,23.57
2018-10-17T17:13:14.310Z,16.47
2018-10-17T17:17:57.393Z,16.33
2018-10-17T17:22:41.115Z,14.37
2018-10-17T17:27:24.027Z,15.67
2018-10-17T17:32:09.363Z,20.20
2018-10-17T17:36:52.250Z,19.13
2018-10-17T17:41:38.516Z,16.23
2018-10-17T17:46:21.461Z,14.47
2018-10-17T17:51:06.150Z,14.53
2018-10-17T17:55:51.515Z,12.57
2018-10-17T18:00:47.281Z,13.23
2018-10-17T18:05:34.439Z,13.03
2018-10-17T18:10:17.351Z,12.10
2018-10-17T18:15:00.262Z,11.57
2018-10-17T18:19:44.482Z,13.70
2018-10-17T18:24:28.192Z,13.27
2018-10-17T18:29:11.067Z,11.57
2018-10-17T18:33:55.134Z,12.80
2018-10-17T18:38:41.723Z,13.03
2018-10-17T18:43:25.218Z,14.73
2018-10-17T18:48:08.184Z,13.20
2018-10-17T18:52:51.262Z,12.93
2018-10-17T18:57:34.151Z,20.27
2018-10-17T19:02:18.272Z,14.80
2018-10-17T19:07:02.923Z,12.70
2018-10-17T19:11:47.882Z,12.13
2018-10-17T19:16:33.056Z,11.10
2018-10-17T19:21:17.995Z,11.40
2018-10-17T19:26:00.899Z,16.10
2018-10-17T19:30:44.771Z,14.67
2018-10-17T19:35:27.742Z,12.20
2018-10-17T19:40:11.478Z,10.27
2018-10-17T19:44:54.509Z,10.30
2018-10-17T19:49:38.667Z,9.47
2018-10-17T19:54:21.950Z,10.40
2018-10-17T19:59:05.296Z,11.20
2018-10-17T20:03:48.309Z,10.43
2018-10-17T20:08:31.212Z,10.83
2018-10-17T20:13:14.382Z,12.97
2018-10-17T20:17:57.622Z,13.30
2018-10-17T20:22:41.665Z,11.67
2018-10-17T20:27:24.528Z,11.70
2018-10-17T20:32:08.310Z,11.60
2018-10-17T20:36:51.157Z,10.97
2018-10-17T20:41:34.682Z,12.50
2018-10-17T20:46:17.614Z,11.00
2018-10-17T20:51:01.709Z,12.53
2018-10-17T20:55:44.561Z,10.97
2018-10-17T21:00:29.589Z,11.30
2018-10-17T21:05:12.512Z,11.37
2018-10-17T21:09:55.538Z,11.23
2018-10-17T21:14:38.414Z,12.13
2018-10-17T21:19:21.546Z,13.20
2018-10-17T21:24:04.880Z,11.10
2018-10-17T21:28:47.830Z,11.77
2018-10-17T21:33:30.857Z,13.40
2018-10-17T21:38:13.767Z,13.43
2018-10-17T21:42:56.786Z,13.10
2018-10-17T21:47:39.692Z,13.50
2018-10-17T21:52:22.754Z,13.90
2018-10-17T21:57:06.341Z,13.70
2018-10-17T22:01:49.301Z,15.23
2018-10-17T22:06:32.194Z,13.77
2018-10-17T22:11:15.158Z,13.80
2018-10-17T22:16:03.633Z,14.53
2018-10-17T22:20:46.716Z,14.80
2018-10-17T22:25:29.627Z,14.30
2018-10-17T22:30:12.724Z,14.97
2018-10-17T22:34:55.578Z,14.67
2018-10-17T22:39:38.506Z,14.80
2018-10-17T22:44:21.426Z,14.90
2018-10-17T22:49:04.967Z,14.30
2018-10-17T22:53:48.107Z,13.23
2018-10-17T22:58:30.938Z,14.50
2018-10-17T23:03:14.126Z,13.90
2018-10-17T23:07:56.987Z,14.27
2018-10-17T23:12:40.987Z,14.60
2018-10-17T23:17:23.850Z,13.40
2018-10-17T23:22:06.737Z,15.17
2018-10-17T23:26:49.666Z,15.43
2018-10-17T23:31:33.534Z,14.80
2018-10-17T23:36:16.409Z,15.50
2018-10-17T23:40:59.333Z,15.40
2018-10-17T23:45:42.191Z,15.70
2018-10-17T23:50:26.103Z,15.70
2018-10-17T23:55:09.430Z,15.97
2018-10-17T23:59:52.445Z,15.43
